createdAt,value
2023-05-18T00:00:36.600Z,8.21
2023-05-18T00:05:58.217Z,8.20
2023-05-18T00:11:06.930Z,8.18
2023-05-18T00:16:12.679Z,8.17
2023-05-18T00:21:16.706Z,8.14
2023-05-18T00:26:21.298Z,8.08
2023-05-18T00:31:27.139Z,7.99
2023-05-18T00:36:32.124Z,7.91
2023-05-18T00:41:36.880Z,7.83
2023-05-18T00:46:41.949Z,7.75
2023-05-18T00:51:46.410Z,7.68
2023-05-18T00:56:54.340Z,7.63
2023-05-18T01:02:05.242Z,7.55
2023-05-18T01:07:12.017Z,7.45
2023-05-18T01:12:24.697Z,7.35
2023-05-18T01:17:47.961Z,7.29
2023-05-18T01:23:24.108Z,7.21
2023-05-18T01:28:32.720Z,7.15
2023-05-18T01:33:36.847Z,7.14
2023-05-18T01:38:43.948Z,7.13
2023-05-18T01:44:34.216Z,7.10
2023-05-18T01:50:02.668Z,7.05
2023-05-18T01:55:07.801Z,7.02
2023-05-18T02:00:13.025Z,6.99
2023-05-18T02:05:23.827Z,6.94
2023-05-18T02:10:27.529Z,6.89
2023-05-18T02:15:31.722Z,6.84
2023-05-18T02:20:38.936Z,6.80
2023-05-18T02:25:44.856Z,6.78
2023-05-18T02:30:51.040Z,6.77
2023-05-18T02:35:54.863Z,6.75
2023-05-18T02:40:59.246Z,6.73
2023-05-18T02:46:06.205Z,6.70
2023-05-18T02:51:11.026Z,6.69
2023-05-18T02:56:15.233Z,6.69
2023-05-18T03:01:45.285Z,6.69
2023-05-18T03:06:53.437Z,6.69
2023-05-18T03:11:58.278Z,6.70
2023-05-18T03:17:06.284Z,6.69
2023-05-18T03:22:11.556Z,6.68
2023-05-18T03:27:16.921Z,6.68
2023-05-18T03:32:23.451Z,6.65
2023-05-18T03:37:27.732Z,6.66
2023-05-18T03:42:32.198Z,6.69
2023-05-18T03:47:40.222Z,6.75
2023-05-18T03:52:45.003Z,6.84
2023-05-18T03:57:49.846Z,6.94
2023-05-18T04:02:54.624Z,7.04
2023-05-18T04:08:01.311Z,7.15
2023-05-18T04:13:05.113Z,7.25
2023-05-18T04:18:10.897Z,7.30
2023-05-18T04:23:14.632Z,7.34
2023-05-18T04:28:19.662Z,7.38
2023-05-18T04:33:25.249Z,7.46
2023-05-18T04:38:35.197Z,7.52
2023-05-18T04:43:43.207Z,7.61
2023-05-18T04:48:53.275Z,7.65
2023-05-18T04:53:57.160Z,7.72
2023-05-18T04:59:02.804Z,7.79
2023-05-18T05:04:07.365Z,7.86
2023-05-18T05:09:14.324Z,7.95
2023-05-18T05:14:20.380Z,8.02
2023-05-18T05:19:24.315Z,8.13
2023-05-18T05:24:28.002Z,8.25
2023-05-18T05:29:31.796Z,8.34
2023-05-18T05:34:37.994Z,8.46
2023-05-18T05:39:42.515Z,8.60
2023-05-18T05:44:47.271Z,8.73
2023-05-18T05:49:51.368Z,8.98
2023-05-18T05:54:56.440Z,9.27
2023-05-18T06:00:00.741Z,9.59
2023-05-18T06:05:06.358Z,9.84
2023-05-18T06:10:10.297Z,10.13
2023-05-18T06:15:15.158Z,10.35
2023-05-18T06:20:18.861Z,10.48
2023-05-18T06:25:25.774Z,10.60
2023-05-18T06:30:44.635Z,10.70
2023-05-18T06:36:13.096Z,10.73
2023-05-18T06:41:17.276Z,10.76
2023-05-18T06:46:24.706Z,10.78
2023-05-18T06:51:32.701Z,10.81
2023-05-18T06:56:39.277Z,10.80
2023-05-18T07:01:43.079Z,10.85
2023-05-18T07:06:50.189Z,11.02
2023-05-18T07:11:53.938Z,11.23
2023-05-18T07:16:57.666Z,11.58
2023-05-18T07:22:01.525Z,11.89
2023-05-18T07:27:06.261Z,12.04
2023-05-18T07:32:09.985Z,12.36
2023-05-18T07:37:14.255Z,12.43
2023-05-18T07:42:18.094Z,12.49
2023-05-18T07:47:21.945Z,12.58
2023-05-18T07:52:26.145Z,12.72
2023-05-18T07:57:31.446Z,12.71
2023-05-18T08:02:35.149Z,12.62
2023-05-18T08:07:38.888Z,12.63
2023-05-18T08:12:43.415Z,12.79
2023-05-18T08:17:47.761Z,13.00
2023-05-18T08:22:51.691Z,13.24
2023-05-18T08:27:55.302Z,13.49
2023-05-18T08:32:59.338Z,13.67
2023-05-18T08:38:05.394Z,14.00
2023-05-18T08:43:19.653Z,14.19
2023-05-18T08:48:27.220Z,14.14
2023-05-18T08:53:34.027Z,13.95
2023-05-18T08:58:45.012Z,13.81
2023-05-18T09:03:51.578Z,13.77
2023-05-18T09:09:04.589Z,13.74
2023-05-18T09:14:08.581Z,14.05
2023-05-18T09:19:12.342Z,14.19
2023-05-18T09:24:16.632Z,14.11
2023-05-18T09:29:22.113Z,14.09
2023-05-18T09:34:25.828Z,14.26
2023-05-18T09:39:29.534Z,14.43
2023-05-18T09:44:36.406Z,14.50
2023-05-18T09:49:41.144Z,14.54
2023-05-18T09:54:44.861Z,14.51
2023-05-18T09:59:59.177Z,14.45
2023-05-18T10:05:03.126Z,14.48
2023-05-18T10:10:09.098Z,14.45
2023-05-18T10:15:18.057Z,14.63
2023-05-18T10:20:24.872Z,14.90
2023-05-18T10:25:29.818Z,15.04
2023-05-18T10:30:34.764Z,15.12
2023-05-18T10:35:39.569Z,14.97
2023-05-18T10:40:44.454Z,14.85
2023-05-18T10:45:53.052Z,14.83
2023-05-18T10:50:58.350Z,14.90
2023-05-18T10:56:03.808Z,14.92
2023-05-18T11:01:10.180Z,14.92
2023-05-18T11:06:15.367Z,15.00
2023-05-18T11:11:24.761Z,15.00
2023-05-18T11:16:36.204Z,15.20
2023-05-18T11:21:42.081Z,15.37
2023-05-18T11:26:50.183Z,15.35
2023-05-18T11:31:56.129Z,15.40
2023-05-18T11:37:01.765Z,15.39
2023-05-18T11:42:14.871Z,15.43
2023-05-18T11:47:19.175Z,15.66
2023-05-18T11:52:24.441Z,15.80
2023-05-18T11:57:34.428Z,16.01
2023-05-18T12:02:46.627Z,16.23
2023-05-18T12:07:56.840Z,16.42
2023-05-18T12:13:01.528Z,16.55
2023-05-18T12:18:11.469Z,16.48
2023-05-18T12:23:15.742Z,16.39
2023-05-18T12:28:19.473Z,16.49
2023-05-18T12:33:23.237Z,16.65
2023-05-18T12:38:29.695Z,16.82
2023-05-18T12:43:39.494Z,16.77
2023-05-18T12:48:49.503Z,16.84
2023-05-18T12:53:53.174Z,16.85
2023-05-18T12:59:03.362Z,16.93
2023-05-18T13:04:12.130Z,16.98
2023-05-18T13:09:17.236Z,17.00
2023-05-18T13:14:31.207Z,17.19
2023-05-18T13:19:37.861Z,17.26
2023-05-18T13:24:43.204Z,17.28
2023-05-18T13:29:47.169Z,17.28
2023-05-18T13:34:52.786Z,17.26
2023-05-18T13:40:03.166Z,17.34
2023-05-18T13:45:08.388Z,17.67
2023-05-18T13:50:12.889Z,17.82
2023-05-18T13:55:16.766Z,17.82
2023-05-18T14:00:21.123Z,17.81
2023-05-18T14:05:25.508Z,17.88
2023-05-18T14:10:29.792Z,18.11
2023-05-18T14:15:33.623Z,18.21
2023-05-18T14:20:38.290Z,18.27
2023-05-18T14:25:43.980Z,18.35
2023-05-18T14:30:47.720Z,18.31
2023-05-18T14:35:51.615Z,18.53
2023-05-18T14:40:55.359Z,18.77
2023-05-18T14:46:08.100Z,18.75
2023-05-18T14:51:13.819Z,18.64
2023-05-18T14:56:17.624Z,18.59
2023-05-18T15:01:21.638Z,18.57
2023-05-18T15:06:26.625Z,18.52
2023-05-18T15:11:30.322Z,18.44
2023-05-18T15:16:34.328Z,18.54
2023-05-18T15:21:40.493Z,18.49
2023-05-18T15:26:45.003Z,18.36
2023-05-18T15:31:53.074Z,18.44
2023-05-18T15:36:57.121Z,18.50
2023-05-18T15:42:05.290Z,18.47
2023-05-18T15:47:09.093Z,18.05
2023-05-18T15:52:12.880Z,17.84
2023-05-18T15:57:16.622Z,18.01
2023-05-18T16:02:20.367Z,18.21
2023-05-18T16:07:24.799Z,18.54
2023-05-18T16:12:28.393Z,18.45
2023-05-18T16:17:32.611Z,18.09
2023-05-18T16:22:36.244Z,17.88
2023-05-18T16:27:39.874Z,17.92
2023-05-18T16:32:44.770Z,18.02
2023-05-18T16:37:48.407Z,18.28
2023-05-18T16:42:52.167Z,18.41
2023-05-18T16:47:56.046Z,19.05
2023-05-18T16:52:59.765Z,20.05
2023-05-18T16:58:04.396Z,20.42
2023-05-18T17:03:11.341Z,19.63
2023-05-18T17:08:15.414Z,18.75
2023-05-18T17:13:19.140Z,18.39
2023-05-18T17:18:22.818Z,19.07
2023-05-18T17:23:26.499Z,19.71
2023-05-18T17:28:30.340Z,20.22
2023-05-18T17:33:34.245Z,20.19
2023-05-18T17:38:38.484Z,20.08
2023-05-18T17:43:42.442Z,19.48
2023-05-18T17:48:49.320Z,18.68
2023-05-18T17:53:53.251Z,17.96
2023-05-18T17:58:59.022Z,17.36
2023-05-18T18:04:03.037Z,16.77
2023-05-18T18:09:07.241Z,16.33
2023-05-18T18:14:15.798Z,15.88
2023-05-18T18:19:20.495Z,15.51
2023-05-18T18:24:24.805Z,15.25
2023-05-18T18:29:30.949Z,15.02
2023-05-18T18:34:41.335Z,14.81
2023-05-18T18:39:45.147Z,14.58
2023-05-18T18:44:49.777Z,14.37
2023-05-18T18:49:53.729Z,14.19
2023-05-18T18:54:58.782Z,14.01
2023-05-18T19:00:02.676Z,13.82
2023-05-18T19:05:11.413Z,13.64
2023-05-18T19:10:15.917Z,13.46
2023-05-18T19:15:22.707Z,13.27
2023-05-18T19:20:27.105Z,13.08
2023-05-18T19:25:32.303Z,12.90
2023-05-18T19:30:36.946Z,12.72
2023-05-18T19:35:40.958Z,12.57
2023-05-18T19:40:44.771Z,12.40
2023-05-18T19:45:50.473Z,12.25
2023-05-18T19:50:54.803Z,12.13
2023-05-18T19:56:00.068Z,12.03
2023-05-18T20:01:04.753Z,11.89
2023-05-18T20:06:08.592Z,11.76
2023-05-18T20:11:12.621Z,11.65
2023-05-18T20:16:20.688Z,11.55
2023-05-18T20:21:25.769Z,11.42
2023-05-18T20:26:31.946Z,11.29
2023-05-18T20:31:37.613Z,11.16
2023-05-18T20:36:41.580Z,11.03
2023-05-18T20:41:45.222Z,10.89
2023-05-18T20:46:53.365Z,10.69
2023-05-18T20:51:57.218Z,10.53
2023-05-18T20:57:01.184Z,10.39
2023-05-18T21:02:05.262Z,10.29
2023-05-18T21:07:10.285Z,10.20
2023-05-18T21:12:14.154Z,10.16
2023-05-18T21:17:18.550Z,10.15
2023-05-18T21:22:22.537Z,10.14
2023-05-18T21:27:27.265Z,10.15
2023-05-18T21:32:31.572Z,10.18
2023-05-18T21:37:35.487Z,10.17
2023-05-18T21:42:45.375Z,10.16
2023-05-18T21:47:51.073Z,10.15
2023-05-18T21:52:55.535Z,10.18
2023-05-18T21:57:59.904Z,10.18
2023-05-18T22:03:05.557Z,10.14
2023-05-18T22:08:09.879Z,10.09
2023-05-18T22:13:13.559Z,10.07
2023-05-18T22:18:19.606Z,10.09
2023-05-18T22:23:23.779Z,10.14
2023-05-18T22:28:28.585Z,10.16
2023-05-18T22:33:32.315Z,10.16
2023-05-18T22:38:36.198Z,10.15
2023-05-18T22:43:40.754Z,10.14
2023-05-18T22:48:45.965Z,10.12
2023-05-18T22:53:49.687Z,10.09
2023-05-18T22:58:53.845Z,10.06
2023-05-18T23:03:59.540Z,10.04
2023-05-18T23:09:04.319Z,10.05
2023-05-18T23:14:08.878Z,10.05
2023-05-18T23:19:15.226Z,10.03
2023-05-18T23:24:19.326Z,10.03
2023-05-18T23:29:22.956Z,10.01
2023-05-18T23:34:27.830Z,9.99
2023-05-18T23:39:33.046Z,9.97
2023-05-18T23:44:37.547Z,9.95
2023-05-18T23:49:41.489Z,9.96
2023-05-18T23:54:50.701Z,9.96
2023-05-18T23:59:55.803Z,9.93
